AirNav   Pilot Hours Calculator
 
 1070 users online  

OK07 DJS Airport
Lawton, Oklahoma, USA

GOING TO LAWTON?


FAA INFORMATION EFFECTIVE 03 NOVEMBER 2022

Location

FAA Identifier: OK07
Lat/Long: 34-31-05.4000N 098-19-32.3000W
34-31.090000N 098-19.538333W
34.5181667,-98.3256389
(estimated)
Elevation: 1115 ft. / 340 m (estimated)
From city: 7 miles SE of LAWTON, OK
Time zone: UTC -6 (UTC -5 during Daylight Saving Time)
Zip code: 73501

Airport Operations

Airport use: Private use. Permission required prior to landing
Activation date: 03/2005
Control tower: no
ARTCC: FORT WORTH CENTER
FSS: MC ALESTER FLIGHT SERVICE STATION
Attendance: UNATNDD
Wind indicator: yes
Segmented circle: no

Airport Communications

WX ASOS at LAW (5 nm NW): 120.75 (580-581-1351)
WX AWOS-3 at DUC (18 nm E): 119.075 (580-252-4547)

Nearby radio navigation aids

VOR radial/distance  VOR name  Freq  Var
LAWr064/4.5LAWTON VOR/DME109.4009E
SPSr013/34.5WICHITA FALLS VORTAC112.7010E

Airport Services

Runway Information

Runway 17/35

Dimensions: 2600 x 165 ft. / 792 x 50 m
Surface: turf
RUNWAY 17  RUNWAY 35
Traffic pattern: leftright
Obstructions: 20 ft. pline, marked, 10 ft. from runwaynone

Airport Ownership and Management from official FAA records

Ownership: Privately-owned
Owner: DANIEL STEINBRONER
5323 SE TINNEY
LAWTON, OK 73501
Phone 580-695-5524
Manager: DANIEL STEINBRONER
5323 SE TINNEY
LAWTON, OK 73501
Phone 580-695-5524

Airport Operational Statistics

Aircraft based on the field: 1
Single engine airplanes: 1
    

Additional Remarks

FOR CD CTC FORT WORTH ARTCC AT 817-858-7584.

Instrument Procedures

There are no published instrument procedures at OK07.

Some nearby airports with instrument procedures:

KLAW - Lawton-Fort Sill Regional Airport (5 nm NW)
KFSI - Henry Post Army Airfield (Fort Sill) (9 nm NW)
KDUC - Halliburton Field Airport (18 nm E)
KSPS - Sheppard Air Force Base/Wichita Falls Municipal Airport (33 nm S)
KFDR - Frederick Regional Airport (34 nm W)
 
Loc | Ops | Rwys | IFR | FBO | Links
Com | Nav | Svcs | Stats | Notes
Area around OK07 (DJS Airport)
 
Road maps at: MapQuest Bing Google
 
Aerial photo
WARNING: Photo may not be current or correct
Aerial photo of OK07 (DJS Airport)
Photo provided by pwner of airport
Taken in December 2005

Do you have a better or more recent aerial photo of DJS Airport that you would like to share? If so, please send us your photo.

 
Sectional chart

 
Airport distance calculator
Flying to DJS Airport? Find the distance to fly.

From to OK07

Sunrise and sunset
Times for 29-Nov-2022
 Local
(UTC-6)
 Zulu
(UTC)
Morning civil twilight06:5412:54
Sunrise07:2113:21
Sunset17:2223:22
Evening civil twilight17:5023:50

Current date and time
Zulu (UTC)  30-Nov-2022 01:07:53
Local (UTC-6)  29-Nov-2022 19:07:53
 
METAR
KLAW 
5nm NW 
300053Z AUTO 36024G36KT 10SM CLR 05/M02 A2995 RMK AO2 PK WND 01039/0011 SLP145 T00501017
KFSI 
8nm NW 
300055Z AUTO 01025G32KT 10SM CLR 04/M02 A2994 RMK AO2 PK WND 36034/27 PRESRR SLP141 T00411017
KDUC 
18nm E 
300055Z AUTO 36026G31KT 10SM CLR 05/M01 A2995 RMK AO2 T00461012
TAF
KLAW 
5nm NW 
291726Z 2918/3018 22012G19KT P6SM SKC FM291900 26012G19KT P6SM SKC FM292100 34024G32KT P6SM SKC FM300800 36013KT P6SM SKC FM301200 01007KT P6SM SKC
NOTAMs
Click for the latest NOTAMs
NOTAMs are issued by the DoD/FAA and will open in a separate window not controlled by AirNav.

 

 
 

Would you like to see your business listed on this page?

 If your business provides an interesting product or service to pilots, flight crews, aircraft, or users of the DJS Airport, you should consider listing it here.  To start the listing process, click on the button below
 
Add a business
 

Other Pages about DJS Airport

Update a link
 
Copyright © AirNav, LLC. All rights reserved. Privacy Policy  Contact